Time;durP1;ratioP1;P1;durP2;ratioP2;P2;SDS_P1;SDS_P2;PMS_P1;PMS_P2;Temp;Humidity;BMP_temperature;BMP_pressure;BME280_temperature;BME280_humidity;BME280_pressure;Samples;Min_cycle;Max_cycle;Signal;HPM_P1;HPM_P2
2023/01/26 00:01:37;;;;;;;;;;;15.10;38.80;;;;;;5076268;28;19965;-73
2023/01/26 00:04:02;;;;;;;;;;;15.10;38.80;;;;;;5094195;28;20044;-73
2023/01/26 00:06:28;;;;;;;;;;;15.10;38.80;;;;;;5094632;28;20154;-73
2023/01/26 00:08:54;;;;;;;;;;;15.10;38.80;;;;;;5076020;28;20483;-73
2023/01/26 00:11:25;;;;;;;;;;;15.10;38.80;;;;;;5094051;28;19920;-73
2023/01/26 00:13:51;;;;;;;;;;;15.10;38.80;;;;;;5094096;28;19920;-73
2023/01/26 00:16:17;;;;;;;;;;;15.00;38.80;;;;;;5075752;28;20295;-74
2023/01/26 00:18:42;;;;;;;;;;;15.10;38.80;;;;;;5074818;28;19967;-74
2023/01/26 00:21:11;;;;;;;;;;;15.10;38.80;;;;;;5093837;28;19924;-73
2023/01/26 00:23:36;;;;;;;;;;;15.00;38.80;;;;;;5093874;28;20019;-73
2023/01/26 00:26:05;;;;;;;;;;;15.10;38.80;;;;;;5093728;28;19967;-74
2023/01/26 00:28:30;;;;;;;;;;;15.30;38.80;;;;;;5075604;28;19927;-73
2023/01/26 00:31:12;;;;;;;;;;;15.50;38.40;;;;;;5075471;28;19920;-73
2023/01/26 00:33:38;;;;;;;;;;;15.80;38.90;;;;;;5075790;28;19920;-73
2023/01/26 00:36:04;;;;;;;;;;;16.20;37.80;;;;;;5093536;28;19928;-73
2023/01/26 00:38:29;;;;;;;;;;;16.70;37.30;;;;;;5092471;28;19924;-74
2023/01/26 00:40:55;;;;;;;;;;;17.30;36.70;;;;;;5092235;28;20010;-73
2023/01/26 00:43:20;;;;;;;;;;;17.90;36.10;;;;;;5093490;28;20020;-74
2023/01/26 00:45:46;;;;;;;;;;;18.40;35.50;;;;;;5092053;28;20403;-73
2023/01/26 00:48:11;;;;;;;;;;;18.90;34.70;;;;;;5093601;28;19924;-74
2023/01/26 00:50:37;;;;;;;;;;;19.30;34.30;;;;;;5093409;28;20286;-74
2023/01/26 00:53:02;;;;;;;;;;;19.60;33.60;;;;;;5093195;28;19926;-73
2023/01/26 00:55:31;;;;;;;;;;;19.90;33.20;;;;;;5091297;28;20003;-73
2023/01/26 00:57:57;;;;;;;;;;;20.10;32.80;;;;;;5092443;28;20375;-73
2023/01/26 01:00:23;;;;;;;;;;;20.30;32.60;;;;;;5092799;28;20275;-73
2023/01/26 01:02:48;;;;;;;;;;;20.50;32.50;;;;;;5092691;28;20002;-73
2023/01/26 01:05:14;;;;;;;;;;;20.70;32.10;;;;;;5092426;28;20432;-74
2023/01/26 01:07:39;;;;;;;;;;;20.80;31.90;;;;;;5074500;28;20417;-74
2023/01/26 01:10:07;;;;;;;;;;;20.90;31.80;;;;;;5074131;28;20408;-75
2023/01/26 01:12:33;;;;;;;;;;;21.00;31.60;;;;;;5074262;28;19923;-75
2023/01/26 01:14:58;;;;;;;;;;;21.10;31.40;;;;;;5092115;28;20026;-74
2023/01/26 01:17:24;;;;;;;;;;;21.20;31.30;;;;;;5092070;28;19958;-74
2023/01/26 01:19:52;;;;;;;;;;;21.30;31.10;;;;;;5074574;28;20558;-74
2023/01/26 01:22:18;;;;;;;;;;;21.40;31.10;;;;;;5090946;28;20007;-74
2023/01/26 01:24:43;;;;;;;;;;;21.40;31.00;;;;;;5090964;28;20410;-76
2023/01/26 01:27:09;;;;;;;;;;;21.50;30.70;;;;;;5073911;28;19920;-74
2023/01/26 01:29:35;;;;;;;;;;;21.60;30.70;;;;;;5090600;28;19969;-74
2023/01/26 01:32:00;;;;;;;;;;;21.60;30.70;;;;;;5074322;28;19920;-74
2023/01/26 01:34:26;;;;;;;;;;;21.60;30.40;;;;;;5073799;28;19989;-77
2023/01/26 01:36:51;;;;;;;;;;;21.70;30.50;;;;;;5074476;28;19951;-74
2023/01/26 01:39:17;;;;;;;;;;;21.80;30.50;;;;;;5091761;28;19940;-74
2023/01/26 01:41:42;;;;;;;;;;;21.80;30.30;;;;;;5074036;28;19923;-75
2023/01/26 01:44:12;;;;;;;;;;;21.90;30.30;;;;;;5073987;28;20291;-75
2023/01/26 01:46:39;;;;;;;;;;;21.90;30.20;;;;;;5073814;28;19920;-75
2023/01/26 01:49:12;;;;;;;;;;;21.90;30.20;;;;;;5091937;28;20196;-74
2023/01/26 01:51:44;;;;;;;;;;;21.90;30.10;;;;;;5091990;28;20036;-74
2023/01/26 01:54:11;;;;;;;;;;;21.90;30.30;;;;;;5091934;28;19920;-75
2023/01/26 01:56:39;;;;;;;;;;;21.90;30.10;;;;;;5073101;28;19931;-73
2023/01/26 01:59:06;;;;;;;;;;;21.90;30.20;;;;;;5073964;28;19925;-76
2023/01/26 02:01:32;;;;;;;;;;;21.90;30.30;;;;;;5091775;28;19970;-74
2023/01/26 02:04:00;;;;;;;;;;;21.90;30.10;;;;;;5073814;28;19959;-75
2023/01/26 02:06:30;;;;;;;;;;;22.00;30.10;;;;;;5074168;28;20325;-75
2023/01/26 02:08:56;;;;;;;;;;;22.00;30.10;;;;;;5073623;28;19920;-76
2023/01/26 02:11:25;;;;;;;;;;;22.10;30.00;;;;;;5091867;28;19935;-74
2023/01/26 02:13:51;;;;;;;;;;;22.10;30.00;;;;;;5073575;28;19970;-74
2023/01/26 02:16:17;;;;;;;;;;;22.10;30.00;;;;;;5073167;28;19924;-75
2023/01/26 02:18:44;;;;;;;;;;;22.10;30.00;;;;;;5073316;28;20383;-74
2023/01/26 02:21:12;;;;;;;;;;;22.10;30.00;;;;;;5073749;28;19920;-74
2023/01/26 02:26:33;;;;;;;;;;;22.10;29.90;;;;;;5129932;27;19939;-74
2023/01/26 02:29:00;;;;;;;;;;;22.10;30.00;;;;;;5128768;28;19958;-76
2023/01/26 02:31:25;;;;;;;;;;;22.10;30.00;;;;;;5163449;27;19924;-73
2023/01/26 02:33:51;;;;;;;;;;;22.10;30.00;;;;;;5128811;28;19964;-75
2023/01/26 02:36:18;;;;;;;;;;;22.10;30.00;;;;;;5128678;28;19978;-73
2023/01/26 02:38:50;;;;;;;;;;;22.10;30.00;;;;;;5163519;27;19965;-73
2023/01/26 02:42:37;;;;;;;;;;;22.10;30.00;;;;;;5163372;27;19975;-73
2023/01/26 02:44:03;;;;;;;;;;;22.10;30.00;;;;;;5128337;28;19934;-76
2023/01/26 02:46:31;;;;;;;;;;;22.10;30.00;;;;;;5163316;27;19920;-76
2023/01/26 02:51:42;;;;;;;;;;;22.00;30.00;;;;;;5128355;28;19919;-73
2023/01/26 02:55:21;;;;;;;;;;;22.10;30.00;;;;;;5128324;28;19920;-75
2023/01/26 02:56:58;;;;;;;;;;;22.10;30.00;;;;;;5129018;28;20403;-75
2023/01/26 02:59:24;;;;;;;;;;;22.00;30.00;;;;;;5128834;28;19966;-76
2023/01/26 03:01:50;;;;;;;;;;;22.10;30.00;;;;;;5129951;28;20024;-72
2023/01/26 03:04:15;;;;;;;;;;;22.00;30.00;;;;;;5129000;28;20279;-75
2023/01/26 03:06:41;;;;;;;;;;;22.00;30.00;;;;;;5128627;28;19920;-76
2023/01/26 03:09:09;;;;;;;;;;;22.00;30.00;;;;;;5111974;28;19928;-73
2023/01/26 03:11:40;;;;;;;;;;;22.00;30.00;;;;;;5130111;28;19976;-73
2023/01/26 03:14:07;;;;;;;;;;;22.00;30.00;;;;;;5128519;28;19919;-76
2023/01/26 03:16:32;;;;;;;;;;;22.10;30.00;;;;;;5163129;27;19919;-78
2023/01/26 03:27:29;;;;;;;;;;;21.90;30.10;;;;;;5129414;28;19973;-72
2023/01/26 03:29:55;;;;;;;;;;;21.90;30.10;;;;;;5128286;28;19927;-72
2023/01/26 03:32:21;;;;;;;;;;;21.90;30.10;;;;;;5128410;28;19999;-72
2023/01/26 03:34:47;;;;;;;;;;;21.90;30.00;;;;;;5128208;28;19989;-75
2023/01/26 03:37:12;;;;;;;;;;;21.90;30.10;;;;;;5118421;28;19923;-73
2023/01/26 03:56:20;;;;;;;;;;;22.00;30.10;;;;;;5113800;28;19920;-71
2023/01/26 03:58:47;;;;;;;;;;;22.00;30.10;;;;;;5114265;28;19967;-72
2023/01/26 04:01:24;;;;;;;;;;;22.00;30.00;;;;;;5115528;28;19965;-72
2023/01/26 04:09:23;;;;;;;;;;;22.00;30.00;;;;;;5113819;28;19920;-73
2023/01/26 04:11:51;;;;;;;;;;;22.00;30.10;;;;;;5113725;28;19954;-71
2023/01/26 04:22:44;;;;;;;;;;;21.90;30.10;;;;;;5113662;28;19919;-74
2023/01/26 04:25:11;;;;;;;;;;;21.90;30.10;;;;;;5114219;28;19931;-71
2023/01/26 04:27:37;;;;;;;;;;;21.90;30.10;;;;;;5113532;28;19927;-71
2023/01/26 04:30:03;;;;;;;;;;;21.90;30.10;;;;;;5113461;28;19920;-71
2023/01/26 04:32:32;;;;;;;;;;;21.90;30.10;;;;;;5114664;27;20320;-73
2023/01/26 04:34:57;;;;;;;;;;;22.00;30.20;;;;;;5147905;27;19924;-73
2023/01/26 04:37:23;;;;;;;;;;;22.00;30.30;;;;;;5113231;28;20376;-71
2023/01/26 04:39:48;;;;;;;;;;;21.90;30.20;;;;;;5114370;28;19919;-71
2023/01/26 04:42:14;;;;;;;;;;;21.90;30.10;;;;;;5113701;28;20014;-71
2023/01/26 04:44:39;;;;;;;;;;;21.90;30.10;;;;;;5114306;28;20382;-74
2023/01/26 04:47:08;;;;;;;;;;;22.00;30.10;;;;;;5114404;28;19924;-72
2023/01/26 04:49:33;;;;;;;;;;;22.00;30.20;;;;;;5111837;28;19923;-73
2023/01/26 04:51:59;;;;;;;;;;;22.00;30.20;;;;;;5114446;28;19920;-71
2023/01/26 04:54:25;;;;;;;;;;;21.90;30.10;;;;;;5113146;28;19923;-70
2023/01/26 04:56:50;;;;;;;;;;;22.00;30.20;;;;;;5114029;28;20330;-71
2023/01/26 04:59:16;;;;;;;;;;;22.00;30.20;;;;;;5113021;28;19962;-73
2023/01/26 05:01:41;;;;;;;;;;;22.00;30.20;;;;;;5114049;28;20458;-75
2023/01/26 05:04:07;;;;;;;;;;;22.00;30.20;;;;;;5112505;28;19920;-73
2023/01/26 05:06:33;;;;;;;;;;;22.00;30.20;;;;;;5112614;28;20007;-71
2023/01/26 05:08:58;;;;;;;;;;;22.00;30.10;;;;;;5113873;28;19942;-71
2023/01/26 05:11:24;;;;;;;;;;;22.00;30.20;;;;;;5112822;28;19985;-73
2023/01/26 05:13:49;;;;;;;;;;;22.00;30.10;;;;;;5112505;28;19926;-71
2023/01/26 05:16:16;;;;;;;;;;;22.10;30.20;;;;;;5113713;28;20011;-72
2023/01/26 05:18:41;;;;;;;;;;;22.10;30.10;;;;;;5147215;27;19919;-75
2023/01/26 05:21:07;;;;;;;;;;;22.10;30.10;;;;;;5113542;28;19927;-72
2023/01/26 05:23:32;;;;;;;;;;;22.20;30.00;;;;;;5112397;28;19920;-71
2023/01/26 05:25:58;;;;;;;;;;;22.20;30.00;;;;;;5113236;28;19931;-71
2023/01/26 05:28:23;;;;;;;;;;;22.30;30.00;;;;;;5113640;28;20294;-75
2023/01/26 05:30:49;;;;;;;;;;;22.30;30.00;;;;;;5113531;28;19927;-71
2023/01/26 05:33:15;;;;;;;;;;;22.30;30.00;;;;;;5114108;28;19955;-71
2023/01/26 05:35:40;;;;;;;;;;;22.30;30.00;;;;;;5112046;28;19926;-73
2023/01/26 05:38:06;;;;;;;;;;;22.30;30.00;;;;;;5111384;28;20022;-74
2023/01/26 05:40:32;;;;;;;;;;;22.30;30.00;;;;;;5111931;28;19920;-71
2023/01/26 05:42:57;;;;;;;;;;;22.20;30.00;;;;;;5112211;28;19923;-73
2023/01/26 05:45:23;;;;;;;;;;;22.20;30.00;;;;;;5113208;28;19923;-71
2023/01/26 05:47:48;;;;;;;;;;;22.20;30.00;;;;;;5113228;28;19973;-72
2023/01/26 05:50:14;;;;;;;;;;;22.10;30.00;;;;;;5112156;28;20314;-71
2023/01/26 05:52:40;;;;;;;;;;;22.20;30.00;;;;;;5113569;28;19923;-74
2023/01/26 05:55:09;;;;;;;;;;;22.10;30.10;;;;;;5110811;28;19965;-73
2023/01/26 05:57:35;;;;;;;;;;;22.10;30.10;;;;;;5111817;28;19927;-71
2023/01/26 06:00:01;;;;;;;;;;;22.10;30.10;;;;;;5111845;28;19920;-75
2023/01/26 06:02:27;;;;;;;;;;;22.00;30.10;;;;;;5111647;28;19958;-74
2023/01/26 06:04:52;;;;;;;;;;;22.00;30.10;;;;;;5111602;28;20004;-71
2023/01/26 06:07:18;;;;;;;;;;;22.00;30.10;;;;;;5112844;28;19923;-74
2023/01/26 06:09:44;;;;;;;;;;;22.00;30.30;;;;;;5111650;28;19972;-74
2023/01/26 06:12:14;;;;;;;;;;;22.00;30.30;;;;;;5112820;28;19919;-71
2023/01/26 06:14:40;;;;;;;;;;;22.00;30.30;;;;;;5111832;28;19920;-74
2023/01/26 06:17:05;;;;;;;;;;;22.00;30.20;;;;;;5111422;28;19969;-72
2023/01/26 06:19:31;;;;;;;;;;;22.00;30.20;;;;;;5111781;28;19923;-71
2023/01/26 06:21:56;;;;;;;;;;;21.90;30.30;;;;;;5111775;28;20259;-76
2023/01/26 06:24:22;;;;;;;;;;;21.90;30.20;;;;;;5112534;28;19920;-76
2023/01/26 06:26:48;;;;;;;;;;;22.00;30.30;;;;;;5111549;28;19972;-74
2023/01/26 06:29:16;;;;;;;;;;;22.00;30.30;;;;;;5112652;28;19920;-75
2023/01/26 06:31:42;;;;;;;;;;;22.00;30.20;;;;;;5112821;28;20421;-75
2023/01/26 06:34:07;;;;;;;;;;;22.00;30.30;;;;;;5111481;28;20389;-72
2023/01/26 06:36:33;;;;;;;;;;;22.00;30.20;;;;;;5112553;28;19920;-76
2023/01/26 06:38:59;;;;;;;;;;;22.00;30.20;;;;;;5144691;27;19927;-69
2023/01/26 06:41:24;;;;;;;;;;;22.00;30.20;;;;;;5111665;28;19931;-69
2023/01/26 06:43:50;;;;;;;;;;;22.00;30.60;;;;;;5111537;28;20343;-70
2023/01/26 06:46:16;;;;;;;;;;;21.90;30.80;;;;;;5108700;28;19946;-69
2023/01/26 06:48:41;;;;;;;;;;;21.80;30.70;;;;;;5141955;27;19920;-73
2023/01/26 06:53:55;;;;;;;;;;;21.70;30.90;;;;;;5087721;28;19913;-73
2023/01/26 06:56:21;;;;;;;;;;;21.80;30.90;;;;;;5088169;28;19920;-75
2023/01/26 06:58:47;;;;;;;;;;;22.10;30.70;;;;;;5086223;28;19949;-74
2023/01/26 07:01:17;;;;;;;;;;;22.20;30.50;;;;;;5085104;28;20454;-72
2023/01/26 07:03:43;;;;;;;;;;;22.20;30.60;;;;;;5085988;28;19924;-76
2023/01/26 07:06:11;;;;;;;;;;;22.20;30.60;;;;;;5085209;28;20269;-74
2023/01/26 07:08:37;;;;;;;;;;;22.20;30.30;;;;;;5075133;28;20016;-75
2023/01/26 07:11:03;;;;;;;;;;;22.10;30.20;;;;;;5081778;28;19932;-73
2023/01/26 07:13:29;;;;;;;;;;;22.20;30.40;;;;;;5084369;28;20041;-75
2023/01/26 07:16:02;;;;;;;;;;;22.20;30.60;;;;;;5084051;28;20382;-75
2023/01/26 07:18:28;;;;;;;;;;;22.30;30.50;;;;;;5090785;28;19928;-77
2023/01/26 07:20:53;;;;;;;;;;;22.30;30.40;;;;;;5079932;28;20462;-72
2023/01/26 07:23:19;;;;;;;;;;;22.20;30.40;;;;;;5077199;28;20390;-77
2023/01/26 07:25:44;;;;;;;;;;;22.30;30.40;;;;;;5068118;28;19927;-72
2023/01/26 07:28:10;;;;;;;;;;;22.40;30.10;;;;;;5068730;28;19921;-76
2023/01/26 07:30:36;;;;;;;;;;;22.40;30.10;;;;;;5051568;28;19927;-72
2023/01/26 07:33:02;;;;;;;;;;;22.40;30.20;;;;;;5068742;28;19924;-74
2023/01/26 07:35:30;;;;;;;;;;;22.60;30.40;;;;;;5068780;28;19954;-75
2023/01/26 07:37:57;;;;;;;;;;;22.80;30.30;;;;;;5086468;28;19928;-72
2023/01/26 07:40:23;;;;;;;;;;;23.00;30.30;;;;;;5069276;28;19921;-72
2023/01/26 07:42:48;;;;;;;;;;;23.10;30.10;;;;;;5083336;28;20610;-71
2023/01/26 07:45:16;;;;;;;;;;;23.20;30.10;;;;;;5070759;28;19920;-69
2023/01/26 07:47:42;;;;;;;;;;;23.20;30.30;;;;;;5077476;28;20015;-69
2023/01/26 07:50:09;;;;;;;;;;;23.10;30.30;;;;;;5069310;28;19926;-76
2023/01/26 07:52:35;;;;;;;;;;;23.20;30.50;;;;;;5066230;28;19942;-70
2023/01/26 07:55:00;;;;;;;;;;;23.30;30.40;;;;;;5069671;28;19920;-70
2023/01/26 07:57:26;;;;;;;;;;;23.40;30.20;;;;;;5071846;28;19982;-78
2023/01/26 07:59:51;;;;;;;;;;;23.40;30.10;;;;;;5069162;28;19920;-70
2023/01/26 08:02:17;;;;;;;;;;;23.40;30.10;;;;;;5071548;28;19924;-70
2023/01/26 08:04:43;;;;;;;;;;;23.30;30.00;;;;;;5058426;28;19924;-78
2023/01/26 08:07:08;;;;;;;;;;;23.20;30.00;;;;;;5057659;28;20057;-78
2023/01/26 08:09:34;;;;;;;;;;;23.10;30.10;;;;;;5059717;28;19921;-77
2023/01/26 08:12:06;;;;;;;;;;;22.90;30.30;;;;;;5058404;28;19924;-70
2023/01/26 08:14:32;;;;;;;;;;;22.80;30.30;;;;;;5057199;28;20006;-78
2023/01/26 08:16:58;;;;;;;;;;;22.50;30.40;;;;;;5058361;28;19920;-69
2023/01/26 08:19:23;;;;;;;;;;;22.30;30.60;;;;;;5058844;28;19931;-67
2023/01/26 08:21:49;;;;;;;;;;;22.30;31.20;;;;;;5055579;28;19922;-75
2023/01/26 08:24:14;;;;;;;;;;;22.30;31.30;;;;;;5057826;28;20513;-68
2023/01/26 08:26:40;;;;;;;;;;;22.40;31.40;;;;;;5056934;28;20288;-70
2023/01/26 08:29:06;;;;;;;;;;;22.70;31.50;;;;;;5055696;28;20169;-72
2023/01/26 08:31:32;;;;;;;;;;;23.00;31.00;;;;;;5055289;28;19921;-71
2023/01/26 08:33:58;;;;;;;;;;;23.20;30.90;;;;;;5051908;28;19936;-73
2023/01/26 08:36:23;;;;;;;;;;;23.30;30.60;;;;;;5056208;28;19959;-73
2023/01/26 08:38:50;;;;;;;;;;;23.30;30.60;;;;;;5053306;28;19924;-80
2023/01/26 08:41:15;;;;;;;;;;;23.30;30.50;;;;;;5051887;28;19980;-73
2023/01/26 08:43:41;;;;;;;;;;;23.10;30.70;;;;;;5056356;28;19972;-71
2023/01/26 08:46:09;;;;;;;;;;;22.90;31.00;;;;;;5054812;28;19929;-71
2023/01/26 08:48:36;;;;;;;;;;;22.80;31.30;;;;;;5055263;28;20394;-71
2023/01/26 08:51:02;;;;;;;;;;;22.70;31.30;;;;;;5050995;28;19931;-69
2023/01/26 08:53:29;;;;;;;;;;;22.60;31.40;;;;;;5049394;28;19934;-70
2023/01/26 08:55:54;;;;;;;;;;;22.40;31.50;;;;;;5071833;28;20375;-69
2023/01/26 08:58:20;;;;;;;;;;;22.10;31.70;;;;;;5054790;28;19928;-76
2023/01/26 09:00:45;;;;;;;;;;;22.00;32.00;;;;;;5049407;28;19928;-73
2023/01/26 09:03:11;;;;;;;;;;;21.90;32.20;;;;;;5051400;28;19927;-71
2023/01/26 09:05:40;;;;;;;;;;;21.70;32.40;;;;;;5054132;28;19929;-67
2023/01/26 09:08:06;;;;;;;;;;;21.60;32.70;;;;;;5051335;28;20209;-71
2023/01/26 09:10:32;;;;;;;;;;;21.30;32.70;;;;;;5050336;28;19920;-69
2023/01/26 09:12:58;;;;;;;;;;;21.20;32.90;;;;;;5068851;28;20438;-70
2023/01/26 09:15:23;;;;;;;;;;;21.00;33.20;;;;;;5052596;28;19954;-70
2023/01/26 09:17:49;;;;;;;;;;;20.90;33.30;;;;;;5069267;28;19925;-71
2023/01/26 09:20:15;;;;;;;;;;;20.80;33.70;;;;;;5055870;28;19924;-69
2023/01/26 09:22:41;;;;;;;;;;;20.70;34.20;;;;;;5053126;28;20063;-71
2023/01/26 09:25:07;;;;;;;;;;;20.50;34.20;;;;;;5055581;28;19935;-68
2023/01/26 09:27:32;;;;;;;;;;;20.30;34.20;;;;;;5056963;28;20019;-69
2023/01/26 09:29:58;;;;;;;;;;;20.20;34.80;;;;;;5054631;28;19931;-72
2023/01/26 09:32:24;;;;;;;;;;;20.00;35.10;;;;;;5057368;28;19935;-74
2023/01/26 09:34:49;;;;;;;;;;;19.90;35.40;;;;;;5051600;28;20313;-75
2023/01/26 09:37:15;;;;;;;;;;;19.90;35.50;;;;;;5050574;28;20008;-72
2023/01/26 09:39:40;;;;;;;;;;;19.70;35.70;;;;;;5051271;28;19928;-72
2023/01/26 09:45:01;;;;;;;;;;;19.50;36.50;;;;;;5083328;27;19917;-68
2023/01/26 09:47:35;;;;;;;;;;;19.40;36.50;;;;;;5090154;28;20360;-70
2023/01/26 09:50:02;;;;;;;;;;;19.40;36.80;;;;;;5048307;28;20344;-69
2023/01/26 09:52:38;;;;;;;;;;;19.30;37.20;;;;;;5087566;28;19931;-66
2023/01/26 09:55:04;;;;;;;;;;;19.20;37.20;;;;;;5051015;28;20410;-70
2023/01/26 09:57:36;;;;;;;;;;;19.10;37.30;;;;;;5085945;28;19931;-70
2023/01/26 10:00:08;;;;;;;;;;;19.10;37.50;;;;;;5089251;28;19921;-71
2023/01/26 10:02:48;;;;;;;;;;;19.00;37.60;;;;;;5086264;28;20363;-72
2023/01/26 10:05:21;;;;;;;;;;;18.90;37.70;;;;;;5052860;28;19967;-73
2023/01/26 10:07:47;;;;;;;;;;;18.80;37.80;;;;;;5051826;28;20016;-73
2023/01/26 10:10:16;;;;;;;;;;;18.80;37.90;;;;;;5092351;28;20015;-70
2023/01/26 10:12:42;;;;;;;;;;;18.80;38.00;;;;;;5056352;28;20396;-72
2023/01/26 10:15:24;;;;;;;;;;;18.70;38.10;;;;;;5088762;28;19932;-68
2023/01/26 10:17:53;;;;;;;;;;;18.70;38.20;;;;;;5042442;28;20493;-70
2023/01/26 10:20:26;;;;;;;;;;;18.60;38.40;;;;;;5086238;28;20343;-67
2023/01/26 10:22:54;;;;;;;;;;;18.60;38.70;;;;;;5051909;28;19968;-66
2023/01/26 10:25:26;;;;;;;;;;;18.60;38.80;;;;;;5050219;28;19929;-68
2023/01/26 10:27:53;;;;;;;;;;;18.50;39.00;;;;;;5051650;28;19932;-68
2023/01/26 10:30:19;;;;;;;;;;;18.50;39.30;;;;;;5051801;28;19978;-75
2023/01/26 10:32:46;;;;;;;;;;;18.50;39.50;;;;;;5051946;28;19991;-69
2023/01/26 10:35:16;;;;;;;;;;;18.40;39.30;;;;;;5044647;28;20007;-67
2023/01/26 10:37:42;;;;;;;;;;;18.40;39.50;;;;;;5083080;28;19921;-73
2023/01/26 10:40:09;;;;;;;;;;;18.80;39.40;;;;;;5081241;28;19935;-71
2023/01/26 10:42:35;;;;;;;;;;;19.20;38.90;;;;;;5053917;28;19921;-71
2023/01/26 10:45:02;;;;;;;;;;;19.80;38.30;;;;;;5074850;28;19929;-73
2023/01/26 10:47:28;;;;;;;;;;;20.40;38.00;;;;;;5076388;28;20395;-74
2023/01/26 10:50:13;;;;;;;;;;;21.00;37.10;;;;;;5089681;28;19974;-74
2023/01/26 10:52:55;;;;;;;;;;;21.50;36.80;;;;;;5055156;28;20043;-73
2023/01/26 10:55:23;;;;;;;;;;;22.00;36.30;;;;;;5060896;28;19924;-73
2023/01/26 10:57:52;;;;;;;;;;;22.60;35.70;;;;;;5041718;28;19932;-73
2023/01/26 11:05:46;;;;;;;;;;;23.30;34.30;;;;;;5094378;27;20389;-70
2023/01/26 11:08:30;;;;;;;;;;;23.20;34.30;;;;;;5120414;27;20536;-67
2023/01/26 11:10:56;;;;;;;;;;;23.20;34.20;;;;;;5085803;28;19940;-70
2023/01/26 11:13:21;;;;;;;;;;;23.10;34.20;;;;;;5117164;27;20537;-69
2023/01/26 11:15:48;;;;;;;;;;;23.00;34.20;;;;;;5083908;28;19928;-76
2023/01/26 11:21:05;;;;;;;;;;;22.70;34.20;;;;;;5065946;27;19917;-74
2023/01/26 11:31:54;;;;;;;;;;;21.70;35.30;;;;;;5083268;27;19920;-71
2023/01/26 11:34:24;;;;;;;;;;;21.40;35.80;;;;;;5117023;27;19928;-71
2023/01/26 11:42:34;;;;;;;;;;;20.70;36.90;;;;;;5088167;27;19921;-69
2023/01/26 11:45:08;;;;;;;;;;;20.50;37.60;;;;;;5081218;28;20007;-69
2023/01/26 11:50:34;;;;;;;;;;;20.20;38.60;;;;;;5092001;27;19938;-70
2023/01/26 11:53:09;;;;;;;;;;;20.10;39.00;;;;;;5077541;28;19936;-71
2023/01/26 11:55:49;;;;;;;;;;;20.00;39.20;;;;;;5073730;28;19936;-73
2023/01/26 11:58:34;;;;;;;;;;;19.90;39.30;;;;;;5074348;28;19933;-71
2023/01/26 12:01:05;;;;;;;;;;;19.80;39.60;;;;;;5072346;28;19933;-70
2023/01/26 12:03:37;;;;;;;;;;;19.70;39.70;;;;;;5072586;28;19925;-69
2023/01/26 12:06:06;;;;;;;;;;;19.70;39.80;;;;;;5072752;28;19920;-73
2023/01/26 12:11:24;;;;;;;;;;;19.60;40.20;;;;;;5060299;28;19943;-71
2023/01/26 12:14:09;;;;;;;;;;;19.70;39.30;;;;;;5058427;28;19931;-71
2023/01/26 12:19:43;;;;;;;;;;;20.30;39.90;;;;;;5067281;28;20240;-74
2023/01/26 12:22:13;;;;;;;;;;;20.80;39.50;;;;;;5056399;28;20046;-69
2023/01/26 12:24:42;;;;;;;;;;;21.60;38.40;;;;;;5057264;28;19924;-69
2023/01/26 12:27:15;;;;;;;;;;;22.00;37.90;;;;;;5051347;28;19925;-69
2023/01/26 12:29:46;;;;;;;;;;;22.60;37.10;;;;;;5050073;28;20403;-76
2023/01/26 12:32:12;;;;;;;;;;;23.10;35.90;;;;;;5063122;28;20898;-71
2023/01/26 12:34:38;;;;;;;;;;;23.50;35.60;;;;;;5064466;28;19983;-70
2023/01/26 12:42:44;;;;;;;;;;;24.00;34.20;;;;;;5086422;27;1877656;-68
2023/01/26 12:45:13;;;;;;;;;;;24.00;34.30;;;;;;5128819;27;19971;-68
2023/01/26 12:47:43;;;;;;;;;;;24.00;34.30;;;;;;5150306;27;20022;-71
2023/01/26 12:50:26;;;;;;;;;;;23.90;34.30;;;;;;5135228;27;20374;-69
2023/01/26 12:53:12;;;;;;;;;;;23.80;34.40;;;;;;5128307;27;20233;-65
2023/01/26 12:55:57;;;;;;;;;;;23.70;34.30;;;;;;5149508;27;20304;-71
2023/01/26 12:58:26;;;;;;;;;;;23.40;34.40;;;;;;5115574;27;19931;-70
2023/01/26 13:01:08;;;;;;;;;;;23.10;34.80;;;;;;5138076;27;20393;-69
2023/01/26 13:03:37;;;;;;;;;;;22.90;35.10;;;;;;5131316;27;19926;-73
2023/01/26 13:11:52;;;;;;;;;;;22.30;35.70;;;;;;5087727;27;19946;-72
2023/01/26 13:14:37;;;;;;;;;;;22.20;36.00;;;;;;5088208;28;19938;-71
2023/01/26 13:19:58;;;;;;;;;;;21.80;36.60;;;;;;5106876;27;1875735;-72
2023/01/26 13:25:12;;;;;;;;;;;21.50;37.00;;;;;;5090003;27;19924;-73
2023/01/26 13:35:42;;;;;;;;;;;20.80;38.30;;;;;;5057926;28;19943;-70
2023/01/26 13:38:28;;;;;;;;;;;20.70;39.00;;;;;;5037096;28;19925;-70
2023/01/26 13:40:54;;;;;;;;;;;20.70;39.10;;;;;;5044036;28;20058;-69
2023/01/26 13:43:39;;;;;;;;;;;20.50;39.90;;;;;;5047747;28;20007;-69
2023/01/26 13:48:49;;;;;;;;;;;20.30;40.30;;;;;;5091660;27;19920;-70
2023/01/26 13:51:16;;;;;;;;;;;20.30;40.70;;;;;;5126501;27;19983;-70
2023/01/26 13:53:47;;;;;;;;;;;20.20;40.80;;;;;;5090480;28;19943;-69
2023/01/26 13:56:29;;;;;;;;;;;20.10;40.80;;;;;;5091148;28;19926;-75
2023/01/26 13:59:03;;;;;;;;;;;20.00;41.00;;;;;;5111194;27;20022;-72
2023/01/26 14:01:29;;;;;;;;;;;19.90;41.40;;;;;;5081668;28;20051;-72
2023/01/26 14:04:04;;;;;;;;;;;19.80;41.60;;;;;;5091275;28;20395;-73
2023/01/26 14:06:30;;;;;;;;;;;19.70;41.70;;;;;;5095161;28;19920;-72
2023/01/26 14:08:56;;;;;;;;;;;19.60;41.90;;;;;;5092601;28;19931;-72
2023/01/26 14:11:23;;;;;;;;;;;19.60;42.00;;;;;;5095701;28;19924;-73
2023/01/26 14:13:50;;;;;;;;;;;19.60;40.80;;;;;;5094950;28;19928;-72
2023/01/26 14:16:20;;;;;;;;;;;19.50;40.80;;;;;;5098661;28;19924;-73
2023/01/26 14:18:47;;;;;;;;;;;19.40;40.80;;;;;;5099046;28;20322;-73
2023/01/26 14:21:16;;;;;;;;;;;19.40;41.20;;;;;;5098756;28;19934;-74
2023/01/26 14:23:42;;;;;;;;;;;19.30;42.00;;;;;;5126834;27;19927;-74
2023/01/26 14:26:17;;;;;;;;;;;19.30;41.50;;;;;;5097499;28;20363;-75
2023/01/26 14:28:43;;;;;;;;;;;19.20;41.50;;;;;;5100350;28;19931;-75
2023/01/26 14:31:14;;;;;;;;;;;19.20;41.60;;;;;;5101059;28;19920;-75
2023/01/26 14:33:40;;;;;;;;;;;19.10;41.60;;;;;;5101629;28;19920;-74
2023/01/26 14:36:06;;;;;;;;;;;19.10;41.70;;;;;;5099924;28;19965;-74
2023/01/26 14:38:40;;;;;;;;;;;19.00;41.70;;;;;;5102292;28;19924;-75
2023/01/26 14:41:09;;;;;;;;;;;18.90;41.80;;;;;;5104013;28;19920;-74
2023/01/26 14:43:34;;;;;;;;;;;18.90;41.90;;;;;;5100446;28;20343;-74
2023/01/26 14:46:06;;;;;;;;;;;18.80;41.90;;;;;;5101982;28;19920;-74
2023/01/26 14:48:36;;;;;;;;;;;18.80;42.00;;;;;;5091051;28;19924;-73
2023/01/26 14:51:03;;;;;;;;;;;18.80;42.10;;;;;;5099602;28;19963;-74
2023/01/26 14:53:31;;;;;;;;;;;18.80;41.60;;;;;;5099759;28;20010;-74
2023/01/26 14:56:00;;;;;;;;;;;19.30;41.80;;;;;;5100906;28;19924;-71
2023/01/26 14:58:28;;;;;;;;;;;19.80;41.40;;;;;;5095250;28;20005;-76
2023/01/26 15:00:56;;;;;;;;;;;20.30;40.70;;;;;;5114251;27;19965;-76
2023/01/26 15:08:54;;;;;;;;;;;22.40;36.30;;;;;;5083930;28;19920;-75
2023/01/26 15:14:33;;;;;;;;;;;22.90;35.20;;;;;;5074679;28;19920;-78
2023/01/26 15:16:59;;;;;;;;;;;23.10;35.20;;;;;;5061050;28;19921;-78
2023/01/26 15:19:29;;;;;;;;;;;23.10;34.80;;;;;;5092812;28;19927;-73
2023/01/26 15:21:55;;;;;;;;;;;23.00;35.00;;;;;;5084628;28;20286;-73
2023/01/26 15:24:21;;;;;;;;;;;23.00;34.90;;;;;;5082313;28;20011;-74
2023/01/26 15:26:48;;;;;;;;;;;22.90;35.30;;;;;;5083104;28;20023;-72
2023/01/26 15:32:01;;;;;;;;;;;22.90;35.60;;;;;;5084846;28;20124;-72
2023/01/26 15:34:29;;;;;;;;;;;22.90;35.70;;;;;;5082042;28;19929;-71
2023/01/26 15:36:57;;;;;;;;;;;22.90;35.60;;;;;;5083422;28;19935;-74
2023/01/26 15:39:23;;;;;;;;;;;22.90;35.60;;;;;;5083634;28;19928;-73
2023/01/26 15:42:08;;;;;;;;;;;22.80;35.40;;;;;;5083170;28;19974;-77
2023/01/26 15:44:34;;;;;;;;;;;22.60;35.40;;;;;;5083832;28;19986;-68
2023/01/26 15:47:02;;;;;;;;;;;22.40;36.40;;;;;;5101344;28;19928;-74
2023/01/26 15:49:28;;;;;;;;;;;22.20;35.80;;;;;;5083500;28;19943;-74
2023/01/26 15:51:53;;;;;;;;;;;22.10;36.10;;;;;;5084510;28;20314;-75
2023/01/26 15:54:18;;;;;;;;;;;21.90;36.20;;;;;;5084623;28;20398;-75
2023/01/26 15:56:44;;;;;;;;;;;21.80;36.30;;;;;;5085402;28;20607;-74
2023/01/26 15:59:12;;;;;;;;;;;21.70;36.50;;;;;;5083656;28;20333;-74
2023/01/26 16:01:38;;;;;;;;;;;21.60;36.50;;;;;;5085182;28;19935;-74
2023/01/26 16:04:04;;;;;;;;;;;21.50;36.60;;;;;;5087381;28;19920;-74
2023/01/26 16:06:30;;;;;;;;;;;21.50;36.80;;;;;;5085965;28;20049;-74
2023/01/26 16:08:56;;;;;;;;;;;21.30;36.70;;;;;;5086929;28;19974;-74
2023/01/26 16:11:25;;;;;;;;;;;21.30;36.90;;;;;;5084481;28;19924;-74
2023/01/26 16:13:55;;;;;;;;;;;21.20;37.00;;;;;;5084739;28;20009;-74
2023/01/26 16:16:26;;;;;;;;;;;21.10;37.10;;;;;;5084485;28;20061;-74
2023/01/26 16:18:53;;;;;;;;;;;21.00;37.10;;;;;;5087392;28;20024;-74
2023/01/26 16:24:00;;;;;;;;;;;20.90;37.30;;;;;;5107969;27;19919;-72